Time;durP1;ratioP1;P1;durP2;ratioP2;P2;SDS_P1;SDS_P2;PMS_P1;PMS_P2;Temp;Humidity;BMP_temperature;BMP_pressure;BME280_temperature;BME280_humidity;BME280_pressure;Samples;Min_cycle;Max_cycle;Signal;HPM_P1;HPM_P2
2023/03/27 00:00:19;;;;;;;17.30;8.57;;;;;;;;;;8325669;28;20116;-83
2023/03/27 00:04:42;;;;;;;18.60;8.98;;;;;;;;;;8308874;28;20472;-83
2023/03/27 00:08:47;;;;;;;23.48;9.57;;;;;;;;;;8321102;28;20041;-83
2023/03/27 00:12:50;;;;;;;16.05;8.70;;;;;;;;;;8319027;28;20478;-86
2023/03/27 00:16:53;;;;;;;22.10;9.15;;;;;;;;;;8315567;28;20124;-85
2023/03/27 00:20:59;;;;;;;19.55;9.48;;;;;;;;;;8310030;28;20037;-83
2023/03/27 00:25:04;;;;;;;22.27;10.18;;;;;;;;;;8308491;28;20379;-83
2023/03/27 00:29:07;;;;;;;22.23;10.30;;;;;;;;;;8304924;28;20053;-83
2023/03/27 00:33:12;;;;;;;20.25;10.70;;;;;;;;;;8326684;28;20038;-82
2023/03/27 00:37:15;;;;;;;24.02;12.20;;;;;;;;;;8322886;28;20061;-84
2023/03/27 00:41:19;;;;;;;20.35;10.25;;;;;;;;;;8319394;28;20049;-83
2023/03/27 00:45:25;;;;;;;17.45;9.23;;;;;;;;;;8297533;28;20099;-83
2023/03/27 00:49:31;;;;;;;32.55;12.00;;;;;;;;;;8322526;28;20143;-83
2023/03/27 00:53:36;;;;;;;18.70;10.48;;;;;;;;;;8319091;28;20045;-82
2023/03/27 00:57:40;;;;;;;17.42;8.73;;;;;;;;;;8327608;28;20042;-82
2023/03/27 01:01:45;;;;;;;18.05;8.63;;;;;;;;;;8317058;28;20038;-84
2023/03/27 01:05:50;;;;;;;18.05;9.23;;;;;;;;;;8322714;28;20111;-83
2023/03/27 01:09:55;;;;;;;20.25;8.20;;;;;;;;;;8321139;28;20064;-83
2023/03/27 01:14:13;;;;;;;15.55;8.50;;;;;;;;;;8322615;28;20049;-83
2023/03/27 01:18:36;;;;;;;16.35;9.07;;;;;;;;;;8312866;28;20077;-83
2023/03/27 01:23:10;;;;;;;19.77;8.82;;;;;;;;;;8301745;28;20041;-84
2023/03/27 01:27:19;;;;;;;25.55;8.63;;;;;;;;;;8315405;28;20052;-82
2023/03/27 01:31:39;;;;;;;17.45;9.00;;;;;;;;;;8307280;28;20486;-84
2023/03/27 01:36:15;;;;;;;18.30;8.10;;;;;;;;;;8296737;28;20115;-84
2023/03/27 01:40:21;;;;;;;18.80;8.55;;;;;;;;;;8284325;28;20480;-83
2023/03/27 01:44:31;;;;;;;19.40;8.82;;;;;;;;;;8316704;28;20049;-83
2023/03/27 01:48:40;;;;;;;22.02;9.90;;;;;;;;;;8306153;28;20046;-83
2023/03/27 01:52:46;;;;;;;21.83;12.02;;;;;;;;;;8314209;28;20048;-83
2023/03/27 01:56:55;;;;;;;21.40;10.07;;;;;;;;;;8319791;28;20044;-83
2023/03/27 02:01:02;;;;;;;25.10;10.38;;;;;;;;;;8319490;28;20042;-84
2023/03/27 02:05:10;;;;;;;25.77;11.02;;;;;;;;;;8312206;28;20091;-84
2023/03/27 02:09:20;;;;;;;25.52;10.70;;;;;;;;;;8325113;28;20045;-84
2023/03/27 02:13:29;;;;;;;22.08;10.57;;;;;;;;;;8331475;28;20056;-83
2023/03/27 02:17:37;;;;;;;34.90;13.80;;;;;;;;;;8331342;28;20041;-84
2023/03/27 02:21:40;;;;;;;27.88;12.43;;;;;;;;;;8306630;28;20050;-83
2023/03/27 02:25:44;;;;;;;24.15;11.90;;;;;;;;;;8312889;28;20045;-82
2023/03/27 02:30:00;;;;;;;20.30;10.10;;;;;;;;;;8330256;28;20100;-83
2023/03/27 02:34:19;;;;;;;28.30;13.77;;;;;;;;;;8308081;28;20072;-82
2023/03/27 02:38:26;;;;;;;70.47;30.40;;;;;;;;;;8316518;28;20061;-83
2023/03/27 02:42:39;;;;;;;68.93;34.80;;;;;;;;;;8322830;28;20041;-82
2023/03/27 02:46:51;;;;;;;26.13;13.88;;;;;;;;;;8312220;28;20045;-84
2023/03/27 02:50:57;;;;;;;24.05;11.02;;;;;;;;;;8308853;28;20382;-82
2023/03/27 02:55:05;;;;;;;24.73;11.05;;;;;;;;;;8319999;28;20053;-82
2023/03/27 02:59:11;;;;;;;23.60;10.63;;;;;;;;;;8308461;28;20050;-82
2023/03/27 03:03:21;;;;;;;28.83;14.95;;;;;;;;;;8308822;28;20045;-82
2023/03/27 03:07:25;;;;;;;48.92;22.25;;;;;;;;;;8307581;28;20466;-83
2023/03/27 03:11:28;;;;;;;73.82;38.22;;;;;;;;;;8305725;28;20535;-83
2023/03/27 03:15:31;;;;;;;66.82;35.33;;;;;;;;;;8324029;28;20478;-85
2023/03/27 03:19:36;;;;;;;53.58;25.45;;;;;;;;;;8311411;28;20490;-82
2023/03/27 03:23:39;;;;;;;62.53;28.67;;;;;;;;;;8312202;28;20061;-84
2023/03/27 03:27:43;;;;;;;47.10;23.65;;;;;;;;;;8323314;28;20049;-83
2023/03/27 03:31:45;;;;;;;40.92;17.52;;;;;;;;;;8298750;28;20054;-83
2023/03/27 03:35:50;;;;;;;29.73;15.02;;;;;;;;;;8302172;28;20497;-83
2023/03/27 03:39:54;;;;;;;33.83;14.73;;;;;;;;;;8292258;28;20042;-83
2023/03/27 03:43:56;;;;;;;32.63;14.23;;;;;;;;;;8300476;28;20046;-83
2023/03/27 03:47:59;;;;;;;32.08;16.40;;;;;;;;;;8303582;28;20037;-82
2023/03/27 03:52:04;;;;;;;50.85;25.65;;;;;;;;;;8315499;28;20094;-83
2023/03/27 03:56:08;;;;;;;51.38;25.88;;;;;;;;;;8311996;28;20125;-85
2023/03/27 04:00:12;;;;;;;54.63;25.83;;;;;;;;;;8320538;28;20478;-83
2023/03/27 04:04:15;;;;;;;41.53;20.48;;;;;;;;;;8315981;28;20067;-83
2023/03/27 04:08:19;;;;;;;37.28;19.75;;;;;;;;;;8308853;28;20045;-82
2023/03/27 04:12:22;;;;;;;37.92;19.80;;;;;;;;;;8327461;28;20037;-83
2023/03/27 04:16:24;;;;;;;63.05;28.73;;;;;;;;;;8331099;28;20053;-83
2023/03/27 04:20:27;;;;;;;54.25;24.83;;;;;;;;;;8321738;28;20099;-83
2023/03/27 04:24:32;;;;;;;48.08;21.48;;;;;;;;;;8323936;28;20049;-83
2023/03/27 04:28:34;;;;;;;43.30;22.17;;;;;;;;;;8329178;28;20092;-82
2023/03/27 04:32:37;;;;;;;44.97;22.88;;;;;;;;;;8332667;28;20049;-83
2023/03/27 04:36:41;;;;;;;32.92;17.52;;;;;;;;;;8316398;28;20061;-83
2023/03/27 04:40:48;;;;;;;31.42;14.15;;;;;;;;;;8315268;28;20128;-83
2023/03/27 04:44:51;;;;;;;39.63;16.25;;;;;;;;;;8306036;28;20065;-83
2023/03/27 04:48:55;;;;;;;34.65;17.33;;;;;;;;;;8309706;28;20050;-83
2023/03/27 04:53:00;;;;;;;38.60;18.65;;;;;;;;;;8316056;28;20124;-82
2023/03/27 04:57:08;;;;;;;37.08;17.60;;;;;;;;;;8316875;28;20521;-86
2023/03/27 05:01:11;;;;;;;46.55;21.65;;;;;;;;;;8325523;28;20052;-84
2023/03/27 05:05:15;;;;;;;41.97;19.67;;;;;;;;;;8295636;28;20050;-83
2023/03/27 05:09:19;;;;;;;51.30;23.70;;;;;;;;;;8308774;28;20045;-82
2023/03/27 05:13:23;;;;;;;56.90;27.95;;;;;;;;;;8310817;28;20042;-83
2023/03/27 05:17:26;;;;;;;59.72;27.48;;;;;;;;;;8317403;28;20050;-83
2023/03/27 05:21:29;;;;;;;48.03;22.60;;;;;;;;;;8304021;28;20050;-82
2023/03/27 05:25:33;;;;;;;50.63;22.65;;;;;;;;;;8311900;28;20045;-82
2023/03/27 05:29:37;;;;;;;40.40;20.25;;;;;;;;;;8311063;28;20099;-84
2023/03/27 05:33:40;;;;;;;41.42;20.38;;;;;;;;;;8304312;28;20048;-85
2023/03/27 05:37:47;;;;;;;44.40;21.10;;;;;;;;;;8302512;28;20144;-83
2023/03/27 05:41:50;;;;;;;33.53;18.02;;;;;;;;;;8317552;28;20559;-83
2023/03/27 05:45:54;;;;;;;40.40;20.58;;;;;;;;;;8330342;28;20049;-85
2023/03/27 05:49:57;;;;;;;38.42;17.15;;;;;;;;;;8320781;28;20053;-83
2023/03/27 05:54:00;;;;;;;30.25;16.33;;;;;;;;;;8318003;28;20041;-85
2023/03/27 05:58:04;;;;;;;35.20;16.73;;;;;;;;;;8301947;28;20050;-83
2023/03/27 06:02:11;;;;;;;39.15;18.52;;;;;;;;;;8311844;28;20500;-86
2023/03/27 06:06:14;;;;;;;38.53;19.42;;;;;;;;;;8304204;28;20041;-86
2023/03/27 06:10:19;;;;;;;34.13;17.00;;;;;;;;;;8298105;28;20034;-86
2023/03/27 06:14:22;;;;;;;55.03;21.50;;;;;;;;;;8288341;28;20380;-85
2023/03/27 06:18:27;;;;;;;44.13;17.90;;;;;;;;;;8295587;28;20140;-86
2023/03/27 06:22:30;;;;;;;53.25;19.95;;;;;;;;;;8299447;28;20417;-85
2023/03/27 06:26:33;;;;;;;33.85;16.23;;;;;;;;;;8302453;28;20050;-83
2023/03/27 06:30:37;;;;;;;34.72;15.88;;;;;;;;;;8299765;28;20080;-84
2023/03/27 06:34:42;;;;;;;23.92;14.00;;;;;;;;;;8297527;28;20379;-83
2023/03/27 06:38:45;;;;;;;29.35;16.45;;;;;;;;;;8295307;28;20647;-84
2023/03/27 06:42:52;;;;;;;33.78;14.32;;;;;;;;;;8301752;28;20049;-83
2023/03/27 06:46:55;;;;;;;24.48;14.07;;;;;;;;;;8323214;28;20144;-86
2023/03/27 06:51:00;;;;;;;28.30;14.45;;;;;;;;;;8310055;28;20449;-83
2023/03/27 06:55:03;;;;;;;27.63;13.25;;;;;;;;;;8286770;28;20460;-84
2023/03/27 06:59:06;;;;;;;27.13;15.18;;;;;;;;;;8297403;28;20055;-84
2023/03/27 07:03:10;;;;;;;27.27;14.05;;;;;;;;;;8297180;28;20045;-86
2023/03/27 07:07:15;;;;;;;26.77;13.57;;;;;;;;;;8298126;28;20442;-86
2023/03/27 07:11:18;;;;;;;38.20;16.05;;;;;;;;;;8302342;28;20054;-82
2023/03/27 07:15:22;;;;;;;20.00;12.10;;;;;;;;;;8318791;28;20057;-82
2023/03/27 07:19:26;;;;;;;32.67;15.23;;;;;;;;;;8329274;28;20766;-82
2023/03/27 07:23:30;;;;;;;26.42;14.90;;;;;;;;;;8317402;28;20065;-82
2023/03/27 07:27:33;;;;;;;27.17;16.02;;;;;;;;;;8310385;28;20129;-84
2023/03/27 07:31:37;;;;;;;25.27;14.30;;;;;;;;;;8325699;28;20128;-83
2023/03/27 07:35:42;;;;;;;26.50;14.55;;;;;;;;;;8319424;28;20152;-84
2023/03/27 07:39:46;;;;;;;28.65;14.93;;;;;;;;;;8328417;28;20056;-84
2023/03/27 07:43:48;;;;;;;23.52;12.68;;;;;;;;;;8328705;28;20049;-87
2023/03/27 07:47:51;;;;;;;29.67;14.38;;;;;;;;;;8305759;28;20045;-84
2023/03/27 07:51:54;;;;;;;31.40;17.45;;;;;;;;;;8311798;28;20076;-83
2023/03/27 07:55:59;;;;;;;35.08;18.55;;;;;;;;;;8320432;28;20124;-83
2023/03/27 08:00:10;;;;;;;29.02;16.90;;;;;;;;;;8310550;28;20445;-83
2023/03/27 08:04:14;;;;;;;34.00;18.45;;;;;;;;;;8317485;28;20525;-82
2023/03/27 08:08:16;;;;;;;37.85;19.27;;;;;;;;;;8318781;28;20547;-83
2023/03/27 08:12:21;;;;;;;37.45;19.20;;;;;;;;;;8327960;28;20049;-83
2023/03/27 08:16:27;;;;;;;35.80;19.15;;;;;;;;;;8325974;28;20037;-82
2023/03/27 08:20:30;;;;;;;36.92;18.77;;;;;;;;;;8309166;28;20476;-82
2023/03/27 08:24:34;;;;;;;35.60;18.33;;;;;;;;;;8296944;28;20046;-82
2023/03/27 08:28:38;;;;;;;38.47;19.27;;;;;;;;;;8314331;28;20489;-83
2023/03/27 08:32:42;;;;;;;35.95;17.48;;;;;;;;;;8318141;28;20133;-83
2023/03/27 08:36:45;;;;;;;37.40;18.75;;;;;;;;;;8317500;28;20053;-82
2023/03/27 08:40:51;;;;;;;41.72;18.70;;;;;;;;;;8316229;28;20069;-83
2023/03/27 08:44:56;;;;;;;37.50;19.33;;;;;;;;;;8308629;28;20045;-83
2023/03/27 08:49:06;;;;;;;41.45;19.02;;;;;;;;;;8327835;28;20552;-83
2023/03/27 08:53:22;;;;;;;38.47;19.05;;;;;;;;;;8321206;28;20748;-82
2023/03/27 08:57:30;;;;;;;44.20;20.35;;;;;;;;;;8333421;28;20485;-82
2023/03/27 09:01:39;;;;;;;24.13;12.13;;;;;;;;;;8332969;28;20041;-84
2023/03/27 09:05:48;;;;;;;35.28;16.45;;;;;;;;;;8302610;28;20042;-82
2023/03/27 09:09:58;;;;;;;33.53;16.50;;;;;;;;;;8328467;28;20045;-83
2023/03/27 09:14:10;;;;;;;26.77;13.90;;;;;;;;;;8311767;28;20466;-85
2023/03/27 09:18:19;;;;;;;23.83;11.50;;;;;;;;;;8313909;28;20081;-85
2023/03/27 09:22:26;;;;;;;20.95;9.65;;;;;;;;;;8292585;28;20486;-85
2023/03/27 09:26:34;;;;;;;15.52;9.98;;;;;;;;;;8304926;28;20046;-84
2023/03/27 09:30:38;;;;;;;24.45;12.07;;;;;;;;;;8326682;28;20045;-82
2023/03/27 09:34:44;;;;;;;17.02;7.63;;;;;;;;;;8321701;28;20129;-81
2023/03/27 09:38:50;;;;;;;21.52;11.85;;;;;;;;;;8331912;28;20405;-82
2023/03/27 09:42:54;;;;;;;25.42;12.45;;;;;;;;;;8331409;28;20541;-82
2023/03/27 09:47:04;;;;;;;23.63;12.50;;;;;;;;;;8323928;28;20051;-81
2023/03/27 09:51:38;;;;;;;17.50;9.60;;;;;;;;;;8311891;28;20085;-84
2023/03/27 09:55:53;;;;;;;28.25;13.18;;;;;;;;;;8313042;28;20038;-80
2023/03/27 09:59:59;;;;;;;25.08;11.88;;;;;;;;;;8317290;28;20497;-81
2023/03/27 10:04:11;;;;;;;34.47;15.15;;;;;;;;;;8305718;28;20496;-84
2023/03/27 10:08:32;;;;;;;29.95;11.73;;;;;;;;;;8308909;28;20041;-82
2023/03/27 10:12:36;;;;;;;24.15;8.90;;;;;;;;;;8288655;28;20050;-82
2023/03/27 10:16:41;;;;;;;17.77;7.22;;;;;;;;;;8299063;28;20049;-81
2023/03/27 10:20:51;;;;;;;17.05;8.43;;;;;;;;;;8295666;28;20137;-90
2023/03/27 10:25:00;;;;;;;16.02;7.30;;;;;;;;;;8285446;28;20425;-82
2023/03/27 10:29:21;;;;;;;15.05;7.95;;;;;;;;;;8292673;28;20065;-88
2023/03/27 10:33:35;;;;;;;16.00;8.90;;;;;;;;;;8306067;28;20046;-82
2023/03/27 10:37:40;;;;;;;18.88;8.52;;;;;;;;;;8293155;28;20058;-83
2023/03/27 10:41:47;;;;;;;16.55;6.70;;;;;;;;;;8286881;28;20049;-83
2023/03/27 10:45:53;;;;;;;11.57;6.50;;;;;;;;;;8281273;28;20061;-81
2023/03/27 10:50:03;;;;;;;19.00;9.13;;;;;;;;;;8292171;28;20054;-81
2023/03/27 10:54:15;;;;;;;14.13;7.80;;;;;;;;;;8290555;28;20057;-81
2023/03/27 10:58:32;;;;;;;8.80;5.13;;;;;;;;;;8291983;28;20049;-82
2023/03/27 11:02:40;;;;;;;14.00;6.72;;;;;;;;;;8286607;28;20665;-83
2023/03/27 11:06:46;;;;;;;18.48;7.65;;;;;;;;;;8292384;28;20050;-81
2023/03/27 11:10:49;;;;;;;13.90;7.22;;;;;;;;;;8292353;28;20049;-81
2023/03/27 11:15:00;;;;;;;11.63;6.50;;;;;;;;;;8301127;28;20136;-85
2023/03/27 11:19:21;;;;;;;12.77;6.53;;;;;;;;;;8292702;28;20050;-82
2023/03/27 11:23:30;;;;;;;15.73;5.77;;;;;;;;;;8287965;28;20045;-82
2023/03/27 11:27:38;;;;;;;13.20;5.30;;;;;;;;;;8282825;28;20132;-82
2023/03/27 11:31:45;;;;;;;10.90;5.90;;;;;;;;;;8290936;28;20057;-84
2023/03/27 11:35:55;;;;;;;8.63;4.43;;;;;;;;;;8290844;28;20062;-82
2023/03/27 11:40:04;;;;;;;6.53;4.20;;;;;;;;;;8290170;28;20042;-83
2023/03/27 11:44:09;;;;;;;12.75;4.95;;;;;;;;;;8298362;28;20133;-82
2023/03/27 11:48:36;;;;;;;6.38;3.28;;;;;;;;;;8296625;28;20085;-81
2023/03/27 11:52:48;;;;;;;6.85;4.15;;;;;;;;;;8289762;28;20054;-81
2023/03/27 11:56:54;;;;;;;6.93;4.00;;;;;;;;;;8287494;28;20406;-84
2023/03/27 12:01:06;;;;;;;9.18;4.80;;;;;;;;;;8290427;28;20513;-83
2023/03/27 12:05:16;;;;;;;;;;;;;;;;;;8286855;28;20152;-83
2023/03/27 12:09:33;;;;;;;7.70;4.13;;;;;;;;;;8299274;28;19926;-83
2023/03/27 12:14:01;;;;;;;7.15;3.90;;;;;;;;;;8294874;28;20050;-83
2023/03/27 12:18:12;;;;;;;4.30;2.55;;;;;;;;;;8295090;28;20050;-81
2023/03/27 12:22:30;;;;;;;5.90;3.30;;;;;;;;;;8296512;28;20045;-82
2023/03/27 12:26:51;;;;;;;11.43;5.10;;;;;;;;;;8293584;28;20136;-82
2023/03/27 12:31:02;;;;;;;8.10;4.10;;;;;;;;;;8295485;28;20046;-82
2023/03/27 12:35:11;;;;;;;7.82;3.90;;;;;;;;;;8280245;28;20313;-82
2023/03/27 12:39:21;;;;;;;6.00;2.72;;;;;;;;;;8291666;28;20122;-85
2023/03/27 12:43:28;;;;;;;4.40;2.65;;;;;;;;;;8286734;28;20045;-83
2023/03/27 12:47:31;;;;;;;2.08;1.75;;;;;;;;;;8294732;28;20050;-84
2023/03/27 12:51:46;;;;;;;4.22;2.45;;;;;;;;;;8293954;28;20041;-81
2023/03/27 12:56:26;;;;;;;7.63;3.72;;;;;;;;;;8290813;28;20060;-80
2023/03/27 13:00:29;;;;;;;17.67;6.18;;;;;;;;;;8293870;28;20136;-82
2023/03/27 13:04:53;;;;;;;32.30;8.10;;;;;;;;;;8292219;28;20489;-81
2023/03/27 13:09:09;;;;;;;18.73;7.03;;;;;;;;;;8295575;28;20071;-84
2023/03/27 13:13:57;;;;;;;7.25;3.78;;;;;;;;;;8295494;28;20048;-83
2023/03/27 13:18:30;;;;;;;8.20;4.10;;;;;;;;;;8295428;28;20050;-82
2023/03/27 13:22:46;;;;;;;4.60;3.08;;;;;;;;;;8292923;28;20046;-83
2023/03/27 13:26:59;;;;;;;5.20;3.53;;;;;;;;;;8287231;28;20063;-82
2023/03/27 13:31:06;;;;;;;4.18;2.45;;;;;;;;;;8294778;28;20045;-83
2023/03/27 13:35:33;;;;;;;6.85;3.42;;;;;;;;;;8285509;28;20058;-84
2023/03/27 13:39:40;;;;;;;7.80;3.63;;;;;;;;;;8288193;28;20061;-84
2023/03/27 13:43:46;;;;;;;9.70;4.20;;;;;;;;;;8280602;28;20543;-88
2023/03/27 13:48:25;;;;;;;8.32;4.93;;;;;;;;;;8292454;28;20046;-86
2023/03/27 13:52:55;;;;;;;9.77;5.20;;;;;;;;;;8290067;28;20121;-85
2023/03/27 13:57:12;;;;;;;4.30;3.20;;;;;;;;;;8281840;28;20054;-83
2023/03/27 14:01:32;;;;;;;5.68;3.50;;;;;;;;;;8290179;28;20050;-84
2023/03/27 14:06:05;;;;;;;8.98;4.32;;;;;;;;;;8282302;28;20058;-83
2023/03/27 14:10:21;;;;;;;9.25;4.47;;;;;;;;;;8281918;28;20049;-82
2023/03/27 14:14:50;;;;;;;9.23;4.55;;;;;;;;;;8291223;28;20418;-83
2023/03/27 14:19:25;;;;;;;10.15;4.20;;;;;;;;;;8290880;28;20065;-82
2023/03/27 14:23:34;;;;;;;8.75;4.90;;;;;;;;;;8279472;28;20054;-83
2023/03/27 14:27:39;;;;;;;10.05;4.20;;;;;;;;;;8290369;28;20077;-81
2023/03/27 14:31:43;;;;;;;11.10;5.32;;;;;;;;;;8284674;28;20759;-83
2023/03/27 14:35:54;;;;;;;6.30;3.80;;;;;;;;;;8283728;28;20537;-82
2023/03/27 14:40:11;;;;;;;7.75;3.50;;;;;;;;;;8286745;28;20421;-82
2023/03/27 14:44:14;;;;;;;9.88;4.45;;;;;;;;;;8280519;28;20042;-82
2023/03/27 14:48:22;;;;;;;10.18;4.55;;;;;;;;;;8287024;28;20465;-83
2023/03/27 14:52:33;;;;;;;8.48;4.32;;;;;;;;;;8291863;28;20057;-83
2023/03/27 14:56:46;;;;;;;13.07;5.53;;;;;;;;;;8285453;28;20174;-82
2023/03/27 15:00:55;;;;;;;16.90;8.13;;;;;;;;;;8289706;28;20046;-82
2023/03/27 15:05:03;;;;;;;7.32;3.47;;;;;;;;;;8287418;28;20049;-82
2023/03/27 15:09:14;;;;;;;11.13;5.00;;;;;;;;;;8295086;28;20056;-82
2023/03/27 15:13:25;;;;;;;11.55;4.78;;;;;;;;;;8287592;28;20056;-81
2023/03/27 15:17:30;;;;;;;8.57;4.13;;;;;;;;;;8281140;28;20159;-82
2023/03/27 15:21:53;;;;;;;4.28;2.78;;;;;;;;;;8285135;28;20077;-81
2023/03/27 15:26:02;;;;;;;11.30;5.38;;;;;;;;;;8292405;28;20057;-81
2023/03/27 15:30:19;;;;;;;6.80;3.08;;;;;;;;;;8292459;28;20069;-81
2023/03/27 15:34:33;;;;;;;4.90;2.92;;;;;;;;;;8293869;28;20053;-82
2023/03/27 15:39:01;;;;;;;6.50;3.38;;;;;;;;;;8291740;28;20057;-85
2023/03/27 15:43:24;;;;;;;4.95;2.58;;;;;;;;;;8280424;28;20482;-92
2023/03/27 15:47:34;;;;;;;9.57;5.18;;;;;;;;;;8279930;28;20052;-86
2023/03/27 15:51:44;;;;;;;13.77;6.28;;;;;;;;;;8284105;28;20052;-82
2023/03/27 15:55:54;;;;;;;8.48;3.38;;;;;;;;;;8288071;28;20054;-81
2023/03/27 16:00:00;;;;;;;11.75;3.85;;;;;;;;;;8284144;28;20050;-87
2023/03/27 16:04:10;;;;;;;10.80;4.95;;;;;;;;;;8288420;28;20050;-81
2023/03/27 16:08:23;;;;;;;11.38;4.22;;;;;;;;;;8286418;28;20096;-80
2023/03/27 16:12:33;;;;;;;5.90;2.60;;;;;;;;;;8289060;28;20064;-81
2023/03/27 16:16:43;;;;;;;9.82;4.57;;;;;;;;;;8290388;28;20045;-82
2023/03/27 16:20:57;;;;;;;12.70;4.78;;;;;;;;;;8284124;28;20073;-86
2023/03/27 16:25:04;;;;;;;18.50;7.95;;;;;;;;;;8312918;28;20065;-80
2023/03/27 16:29:09;;;;;;;7.25;3.80;;;;;;;;;;8295435;28;20068;-79
2023/03/27 16:33:15;;;;;;;10.68;4.85;;;;;;;;;;8310873;28;20073;-83
2023/03/27 16:37:23;;;;;;;11.35;6.25;;;;;;;;;;8304439;28;20498;-81
2023/03/27 16:41:26;;;;;;;4.50;2.83;;;;;;;;;;8317285;28;20124;-81
2023/03/27 16:45:49;;;;;;;10.05;5.00;;;;;;;;;;8288509;28;20497;-82
2023/03/27 16:50:03;;;;;;;7.05;3.63;;;;;;;;;;8279555;28;20057;-82
2023/03/27 16:54:27;;;;;;;12.25;3.95;;;;;;;;;;8294633;28;20053;-81
2023/03/27 16:58:53;;;;;;;17.80;6.75;;;;;;;;;;8299827;28;20064;-87
2023/03/27 17:02:57;;;;;;;13.57;5.55;;;;;;;;;;8294859;28;20541;-83
2023/03/27 17:07:01;;;;;;;12.60;5.05;;;;;;;;;;8296747;28;20494;-82
2023/03/27 17:11:11;;;;;;;24.85;8.95;;;;;;;;;;8301158;28;20136;-81
2023/03/27 17:15:15;;;;;;;9.68;4.55;;;;;;;;;;8289885;28;20061;-82
2023/03/27 17:19:21;;;;;;;8.13;3.85;;;;;;;;;;8303361;28;20448;-84
2023/03/27 17:23:30;;;;;;;10.32;4.05;;;;;;;;;;8294015;28;20087;-81
2023/03/27 17:27:54;;;;;;;3.00;2.05;;;;;;;;;;8302623;28;20077;-81
2023/03/27 17:32:06;;;;;;;6.82;3.65;;;;;;;;;;8289272;28;20042;-82
2023/03/27 17:36:13;;;;;;;18.40;6.15;;;;;;;;;;8293958;28;20152;-80
2023/03/27 17:40:19;;;;;;;8.45;3.88;;;;;;;;;;8296029;28;20048;-87
2023/03/27 17:44:24;;;;;;;13.27;5.15;;;;;;;;;;8272154;28;20053;-83
2023/03/27 17:48:29;;;;;;;11.68;5.28;;;;;;;;;;8294829;28;20057;-81
2023/03/27 17:52:33;;;;;;;11.40;3.33;;;;;;;;;;8292776;28;20050;-82
2023/03/27 17:56:39;;;;;;;4.72;2.47;;;;;;;;;;8296595;28;20045;-82
2023/03/27 18:00:45;;;;;;;2.10;1.90;;;;;;;;;;8297695;28;20556;-84
2023/03/27 18:04:51;;;;;;;5.50;2.60;;;;;;;;;;8297284;28;20038;-82
2023/03/27 18:08:55;;;;;;;6.93;3.08;;;;;;;;;;8320228;28;20045;-85
2023/03/27 18:12:59;;;;;;;6.57;3.45;;;;;;;;;;8291572;28;20041;-84
2023/03/27 18:17:04;;;;;;;9.48;4.10;;;;;;;;;;8324232;28;20405;-81
2023/03/27 18:21:09;;;;;;;6.55;3.30;;;;;;;;;;8314938;28;20046;-88
2023/03/27 18:25:16;;;;;;;5.07;2.50;;;;;;;;;;8299805;28;20049;-81
2023/03/27 18:29:22;;;;;;;7.53;3.65;;;;;;;;;;8315485;28;20049;-80
2023/03/27 18:33:30;;;;;;;5.63;3.53;;;;;;;;;;8302010;28;20069;-82
2023/03/27 18:37:35;;;;;;;5.90;3.13;;;;;;;;;;8303830;28;20060;-79
2023/03/27 18:41:41;;;;;;;6.25;3.72;;;;;;;;;;8311995;28;20054;-80
2023/03/27 18:45:48;;;;;;;4.20;2.50;;;;;;;;;;8296659;28;20449;-88
2023/03/27 18:49:55;;;;;;;5.07;2.10;;;;;;;;;;8309961;28;20053;-82
2023/03/27 18:53:59;;;;;;;4.53;2.28;;;;;;;;;;8304959;28;20046;-80
2023/03/27 18:58:05;;;;;;;5.57;2.60;;;;;;;;;;8318302;28;20644;-83
2023/03/27 19:02:13;;;;;;;6.28;2.58;;;;;;;;;;8244864;28;20461;-84
2023/03/27 19:06:22;;;;;;;9.18;3.25;;;;;;;;;;8301479;28;20064;-85
2023/03/27 19:10:36;;;;;;;8.40;3.97;;;;;;;;;;8322482;28;20045;-86
2023/03/27 19:14:40;;;;;;;6.97;3.83;;;;;;;;;;8315326;28;20466;-83
2023/03/27 19:18:45;;;;;;;6.45;3.42;;;;;;;;;;8299353;28;20128;-82
2023/03/27 19:22:54;;;;;;;6.95;3.60;;;;;;;;;;8305938;28;20533;-83
2023/03/27 19:27:03;;;;;;;7.95;4.25;;;;;;;;;;8314447;28;20049;-82
2023/03/27 19:31:09;;;;;;;1.40;1.40;;;;;;;;;;8252537;28;20057;-88
2023/03/27 19:35:14;;;;;;;11.40;4.60;;;;;;;;;;8311571;28;20057;-81
2023/03/27 19:39:20;;;;;;;11.20;4.63;;;;;;;;;;8327887;28;20045;-83
2023/03/27 19:43:25;;;;;;;12.32;6.00;;;;;;;;;;8329161;28;20046;-82
2023/03/27 19:47:31;;;;;;;12.07;5.07;;;;;;;;;;8304948;28;20057;-81
2023/03/27 19:51:37;;;;;;;11.63;4.22;;;;;;;;;;8328632;28;20112;-79
2023/03/27 19:55:44;;;;;;;11.07;4.82;;;;;;;;;;8329007;28;20049;-79
2023/03/27 19:59:49;;;;;;;10.82;5.63;;;;;;;;;;8323360;28;20046;-79
2023/03/27 20:03:53;;;;;;;7.80;3.67;;;;;;;;;;8303616;28;20053;-79
2023/03/27 20:07:59;;;;;;;12.27;4.70;;;;;;;;;;8328278;28;20429;-81
2023/03/27 20:12:10;;;;;;;11.23;5.38;;;;;;;;;;8327889;28;20041;-80
2023/03/27 20:16:15;;;;;;;6.72;3.65;;;;;;;;;;8304692;28;20091;-80
2023/03/27 20:20:19;;;;;;;13.63;6.20;;;;;;;;;;8299632;28;20049;-80
2023/03/27 20:24:23;;;;;;;13.88;6.22;;;;;;;;;;8322043;28;20045;-81
2023/03/27 20:28:29;;;;;;;5.07;3.40;;;;;;;;;;8330700;28;20045;-80
2023/03/27 20:32:33;;;;;;;14.40;5.22;;;;;;;;;;8334936;28;20097;-81
2023/03/27 20:36:39;;;;;;;7.05;3.78;;;;;;;;;;8333817;28;20493;-82
2023/03/27 20:40:49;;;;;;;9.52;4.85;;;;;;;;;;8333465;28;20061;-86
2023/03/27 20:44:57;;;;;;;9.60;4.23;;;;;;;;;;8328689;28;20474;-85
2023/03/27 20:49:02;;;;;;;8.43;3.67;;;;;;;;;;8304193;28;20773;-85
2023/03/27 20:53:04;;;;;;;12.45;5.35;;;;;;;;;;8323263;28;20370;-81
2023/03/27 20:57:08;;;;;;;13.75;5.00;;;;;;;;;;8324659;28;20050;-79
2023/03/27 21:01:13;;;;;;;17.05;6.18;;;;;;;;;;8317103;28;20045;-80
2023/03/27 21:05:16;;;;;;;26.88;7.55;;;;;;;;;;8319150;28;20046;-79
2023/03/27 21:09:19;;;;;;;13.80;5.32;;;;;;;;;;8318961;28;20452;-80
2023/03/27 21:13:22;;;;;;;9.70;3.75;;;;;;;;;;8331792;28;20513;-80
2023/03/27 21:17:26;;;;;;;8.27;4.63;;;;;;;;;;8330453;28;20057;-78
2023/03/27 21:21:30;;;;;;;12.43;4.85;;;;;;;;;;8333444;28;20079;-81
2023/03/27 21:25:34;;;;;;;13.02;5.15;;;;;;;;;;8330611;28;20042;-81
2023/03/27 21:29:37;;;;;;;17.50;6.38;;;;;;;;;;8323858;28;20041;-81
2023/03/27 21:33:42;;;;;;;19.35;6.55;;;;;;;;;;8333126;28;20048;-81
2023/03/27 21:37:45;;;;;;;14.18;5.97;;;;;;;;;;8332916;28;20481;-81
2023/03/27 21:41:48;;;;;;;17.27;5.70;;;;;;;;;;8331068;28;20045;-80
2023/03/27 21:45:51;;;;;;;14.50;4.75;;;;;;;;;;8332350;28;20049;-81
2023/03/27 21:49:55;;;;;;;9.65;4.72;;;;;;;;;;8318097;28;20092;-80
2023/03/27 21:53:58;;;;;;;12.45;5.63;;;;;;;;;;8308832;28;20141;-82
2023/03/27 21:58:01;;;;;;;10.40;4.57;;;;;;;;;;8314494;28;20449;-82
2023/03/27 22:02:04;;;;;;;5.18;2.90;;;;;;;;;;8308016;28;20482;-79
2023/03/27 22:06:09;;;;;;;7.90;4.22;;;;;;;;;;8326499;28;20473;-79
2023/03/27 22:10:13;;;;;;;9.90;3.75;;;;;;;;;;8304945;28;20099;-81
2023/03/27 22:14:16;;;;;;;13.05;5.13;;;;;;;;;;8313800;28;20049;-83
2023/03/27 22:18:18;;;;;;;11.52;5.28;;;;;;;;;;8316708;28;20050;-78
2023/03/27 22:22:23;;;;;;;17.80;5.65;;;;;;;;;;8310093;28;20121;-81
2023/03/27 22:26:29;;;;;;;15.80;6.20;;;;;;;;;;8305909;28;20076;-81
2023/03/27 22:30:32;;;;;;;13.90;5.85;;;;;;;;;;8312565;28;20486;-80
2023/03/27 22:34:35;;;;;;;12.77;5.38;;;;;;;;;;8307135;28;20050;-81
2023/03/27 22:38:40;;;;;;;15.55;5.88;;;;;;;;;;8307716;28;20050;-82
2023/03/27 22:42:44;;;;;;;14.07;5.95;;;;;;;;;;8315657;28;20065;-80
2023/03/27 22:46:47;;;;;;;21.67;6.90;;;;;;;;;;8307673;28;20050;-84
2023/03/27 22:50:54;;;;;;;13.02;5.57;;;;;;;;;;8309748;28;20076;-81
2023/03/27 22:54:59;;;;;;;17.33;6.18;;;;;;;;;;8290862;28;20041;-79
2023/03/27 22:59:02;;;;;;;14.02;6.10;;;;;;;;;;8314960;28;20042;-82
2023/03/27 23:03:05;;;;;;;13.77;5.88;;;;;;;;;;8289055;28;20050;-83
2023/03/27 23:07:08;;;;;;;16.30;5.63;;;;;;;;;;8304548;28;20468;-81
2023/03/27 23:11:13;;;;;;;9.77;5.03;;;;;;;;;;8297364;28;20041;-82
2023/03/27 23:15:16;;;;;;;9.55;5.00;;;;;;;;;;8296557;28;20059;-86
2023/03/27 23:19:19;;;;;;;12.23;5.90;;;;;;;;;;8303656;28;20058;-84
2023/03/27 23:23:22;;;;;;;14.85;5.97;;;;;;;;;;8286100;28;20095;-79
2023/03/27 23:27:26;;;;;;;12.90;7.38;;;;;;;;;;8298179;28;20048;-80
2023/03/27 23:31:29;;;;;;;15.13;6.40;;;;;;;;;;8304579;28;20486;-80
2023/03/27 23:35:32;;;;;;;18.50;6.82;;;;;;;;;;8302066;28;20062;-82
2023/03/27 23:39:35;;;;;;;24.45;8.15;;;;;;;;;;8298595;28;20048;-79
2023/03/27 23:43:39;;;;;;;19.20;8.27;;;;;;;;;;8314038;28;20195;-80
2023/03/27 23:47:42;;;;;;;17.30;6.22;;;;;;;;;;8295248;28;20042;-82
2023/03/27 23:51:45;;;;;;;22.35;7.05;;;;;;;;;;8296223;28;20484;-79
2023/03/27 23:55:48;;;;;;;11.80;5.70;;;;;;;;;;8303248;28;20046;-82
2023/03/27 23:59:52;;;;;;;13.88;6.32;;;;;;;;;;8310605;28;20049;-81
